createdAt,value
2017-09-01T00:01:44.576Z,6.93
2017-09-01T00:04:12.844Z,5.70
2017-09-01T00:06:40.284Z,4.10
2017-09-01T00:09:07.744Z,4.27
2017-09-01T00:11:35.192Z,4.50
2017-09-01T00:14:02.642Z,5.40
2017-09-01T00:16:30.079Z,6.10
2017-09-01T00:18:57.546Z,5.50
2017-09-01T00:21:25.002Z,5.37
2017-09-01T00:23:52.462Z,5.30
2017-09-01T00:26:19.931Z,4.43
2017-09-01T00:28:47.389Z,3.77
2017-09-01T00:31:14.845Z,6.10
2017-09-01T00:33:42.300Z,4.83
2017-09-01T00:36:09.760Z,4.10
2017-09-01T00:38:37.208Z,4.93
2017-09-01T00:41:04.681Z,4.70
2017-09-01T00:43:32.124Z,5.33
2017-09-01T00:45:59.574Z,4.03
2017-09-01T00:48:27.021Z,3.90
2017-09-01T00:50:54.481Z,5.20
2017-09-01T00:53:21.944Z,4.57
2017-09-01T00:55:49.409Z,3.90
2017-09-01T00:58:17.153Z,5.70
2017-09-01T01:00:44.604Z,4.93
2017-09-01T01:03:12.042Z,4.07
2017-09-01T01:05:39.485Z,4.83
2017-09-01T01:08:06.950Z,5.10
2017-09-01T01:10:34.397Z,5.20
2017-09-01T01:13:01.861Z,5.10
2017-09-01T01:15:29.317Z,4.33
2017-09-01T01:17:56.781Z,4.43
2017-09-01T01:20:24.234Z,5.27
2017-09-01T01:22:51.693Z,4.13
2017-09-01T01:25:19.157Z,4.33
2017-09-01T01:27:46.626Z,5.70
2017-09-01T01:30:14.080Z,3.93
2017-09-01T01:32:41.536Z,4.40
2017-09-01T01:35:08.993Z,4.40
2017-09-01T01:37:36.443Z,4.00
2017-09-01T01:40:03.918Z,4.93
2017-09-01T01:42:31.373Z,5.43
2017-09-01T01:44:58.825Z,5.57
2017-09-01T01:47:26.281Z,5.47
2017-09-01T01:49:53.728Z,5.27
2017-09-01T01:52:21.175Z,5.37
2017-09-01T01:54:48.637Z,4.90
2017-09-01T01:57:16.105Z,6.10
2017-09-01T01:59:43.561Z,6.10
2017-09-01T02:02:11.031Z,5.17
2017-09-01T02:04:38.929Z,5.30
2017-09-01T02:07:06.389Z,3.90
2017-09-01T02:09:33.845Z,4.43
2017-09-01T02:12:01.390Z,6.50
2017-09-01T02:14:29.062Z,5.00
2017-09-01T02:16:56.580Z,4.80
2017-09-01T02:19:24.036Z,5.27
2017-09-01T02:21:51.485Z,5.10
2017-09-01T02:24:18.952Z,5.00
2017-09-01T02:26:46.405Z,4.90
2017-09-01T02:29:13.944Z,4.07
2017-09-01T02:31:41.401Z,5.03
2017-09-01T02:34:08.865Z,5.83
2017-09-01T02:36:36.309Z,6.40
2017-09-01T02:39:03.765Z,6.80
2017-09-01T02:41:31.217Z,7.17
2017-09-01T02:43:58.676Z,5.80
2017-09-01T02:46:26.137Z,7.13
2017-09-01T02:48:53.594Z,6.90
2017-09-01T02:51:21.064Z,7.07
2017-09-01T02:53:48.540Z,7.30
2017-09-01T02:56:16.001Z,7.93
2017-09-01T02:58:43.661Z,7.47
2017-09-01T03:01:11.124Z,6.30
2017-09-01T03:03:38.580Z,5.77
2017-09-01T03:06:06.041Z,5.90
2017-09-01T03:08:33.496Z,5.47
2017-09-01T03:11:00.949Z,6.90
2017-09-01T03:13:28.481Z,7.80
2017-09-01T03:15:55.958Z,7.43
2017-09-01T03:18:23.414Z,4.80
2017-09-01T03:20:50.856Z,5.30
2017-09-01T03:23:18.308Z,6.80
2017-09-01T03:25:45.757Z,6.20
2017-09-01T03:28:13.213Z,6.07
2017-09-01T03:30:40.657Z,6.97
2017-09-01T03:33:08.120Z,6.93
2017-09-01T03:35:35.565Z,6.90
2017-09-01T03:38:03.033Z,6.63
2017-09-01T03:40:30.565Z,7.27
2017-09-01T03:42:58.047Z,7.90
2017-09-01T03:45:25.484Z,6.33
2017-09-01T03:47:52.940Z,6.97
2017-09-01T03:50:20.392Z,6.33
2017-09-01T03:52:47.836Z,4.97
2017-09-01T03:55:15.289Z,5.47
2017-09-01T03:57:42.765Z,5.30
2017-09-01T04:00:10.224Z,4.97
2017-09-01T04:02:37.676Z,5.13
2017-09-01T04:05:05.133Z,5.40
2017-09-01T04:07:32.959Z,4.80
2017-09-01T04:10:00.425Z,4.60
2017-09-01T04:12:27.887Z,6.03
2017-09-01T04:14:55.348Z,4.83
2017-09-01T04:17:22.805Z,4.80
2017-09-01T04:19:50.257Z,5.30
2017-09-01T04:22:17.717Z,4.90
2017-09-01T04:24:45.177Z,5.77
2017-09-01T04:27:12.633Z,5.60
2017-09-01T04:29:40.096Z,4.40
2017-09-01T04:32:07.553Z,7.00
2017-09-01T04:34:35.057Z,6.43
2017-09-01T04:37:02.517Z,4.13
2017-09-01T04:39:29.957Z,4.90
2017-09-01T04:41:57.425Z,5.63
2017-09-01T04:44:24.909Z,5.50
2017-09-01T04:46:52.380Z,4.97
2017-09-01T04:49:19.832Z,5.77
2017-09-01T04:51:47.280Z,7.30
2017-09-01T04:54:14.745Z,7.33
2017-09-01T04:56:42.197Z,7.07
2017-09-01T04:59:09.660Z,6.30
2017-09-01T05:01:37.153Z,7.27
2017-09-01T05:04:04.601Z,6.57
2017-09-01T05:06:32.069Z,7.87
2017-09-01T05:08:59.530Z,6.60
2017-09-01T05:11:26.977Z,6.50
2017-09-01T05:13:54.444Z,5.63
2017-09-01T05:16:21.900Z,6.20
2017-09-01T05:18:49.347Z,6.23
2017-09-01T05:21:16.804Z,6.33
2017-09-01T05:23:44.245Z,7.20
2017-09-01T05:26:11.705Z,6.13
2017-09-01T05:28:39.171Z,7.43
2017-09-01T05:31:06.620Z,7.60
2017-09-01T05:33:34.077Z,7.80
2017-09-01T05:36:01.544Z,6.63
2017-09-01T05:38:28.990Z,6.77
2017-09-01T05:40:56.441Z,5.97
2017-09-01T05:43:23.898Z,5.87
2017-09-01T05:45:51.362Z,5.50
2017-09-01T05:48:18.821Z,6.07
2017-09-01T05:50:46.276Z,6.13
2017-09-01T05:53:13.733Z,6.17
2017-09-01T05:55:41.197Z,7.50
2017-09-01T05:58:08.648Z,5.83
2017-09-01T06:00:36.101Z,5.80
2017-09-01T06:03:03.561Z,5.93
2017-09-01T06:05:31.031Z,6.10
2017-09-01T06:07:58.496Z,6.13
2017-09-01T06:10:26.357Z,6.60
2017-09-01T06:12:53.823Z,6.73
2017-09-01T06:15:21.281Z,7.17
2017-09-01T06:17:48.745Z,7.47
2017-09-01T06:20:16.214Z,7.37
2017-09-01T06:22:43.664Z,7.80
2017-09-01T06:25:11.120Z,8.20
2017-09-01T06:27:38.581Z,7.70
2017-09-01T06:30:06.041Z,8.70
2017-09-01T06:32:33.496Z,7.27
2017-09-01T06:35:00.965Z,7.33
2017-09-01T06:37:28.423Z,5.73
2017-09-01T06:39:55.872Z,7.50
2017-09-01T06:42:23.332Z,8.00
2017-09-01T06:44:50.793Z,8.50
2017-09-01T06:47:18.250Z,7.40
2017-09-01T06:49:45.701Z,7.90
2017-09-01T06:52:13.167Z,7.10
2017-09-01T06:54:40.625Z,7.60
2017-09-01T06:57:08.088Z,8.17
2017-09-01T06:59:35.541Z,8.10
2017-09-01T07:02:03.007Z,7.60
2017-09-01T07:04:30.462Z,7.53
2017-09-01T07:06:57.934Z,7.00
2017-09-01T07:09:25.387Z,7.47
2017-09-01T07:11:52.837Z,7.90
2017-09-01T07:14:20.292Z,7.93
2017-09-01T07:16:48.369Z,7.10
2017-09-01T07:19:15.824Z,7.70
2017-09-01T07:21:43.273Z,6.77
2017-09-01T07:24:10.725Z,7.90
2017-09-01T07:26:38.191Z,8.03
2017-09-01T07:29:05.649Z,8.37
2017-09-01T07:31:33.108Z,8.53
2017-09-01T07:34:00.571Z,6.40
2017-09-01T07:36:28.026Z,7.43
2017-09-01T07:38:55.483Z,6.80
2017-09-01T07:41:22.928Z,8.10
2017-09-01T07:43:50.377Z,7.90
2017-09-01T07:46:17.844Z,8.17
2017-09-01T07:48:45.285Z,8.00
2017-09-01T07:51:12.750Z,8.83
2017-09-01T07:53:40.192Z,8.70
2017-09-01T07:56:08.423Z,9.47
2017-09-01T07:58:35.868Z,8.50
2017-09-01T08:01:03.336Z,9.70
2017-09-01T08:03:30.796Z,10.30
2017-09-01T08:05:58.270Z,8.60
2017-09-01T08:08:25.714Z,9.70
2017-09-01T08:10:53.169Z,9.87
2017-09-01T08:13:20.599Z,8.87
2017-09-01T08:15:48.055Z,8.60
2017-09-01T08:18:15.526Z,10.07
2017-09-01T08:20:42.974Z,6.67
2017-09-01T08:23:10.443Z,9.93
2017-09-01T08:25:37.913Z,8.90
2017-09-01T08:28:05.367Z,7.90
2017-09-01T08:30:32.808Z,8.17
2017-09-01T08:33:00.273Z,8.77
2017-09-01T08:35:27.730Z,7.50
2017-09-01T08:37:55.201Z,8.27
2017-09-01T08:40:22.663Z,8.20
2017-09-01T08:42:50.120Z,9.33
2017-09-01T08:45:17.571Z,8.33
2017-09-01T08:47:45.029Z,8.23
2017-09-01T08:50:12.487Z,8.57
2017-09-01T08:52:39.945Z,7.23
2017-09-01T08:55:07.389Z,9.10
2017-09-01T08:57:34.857Z,7.40
2017-09-01T09:00:02.314Z,8.03
2017-09-01T09:02:29.756Z,7.60
2017-09-01T09:04:57.217Z,7.00
2017-09-01T09:07:24.677Z,6.07
2017-09-01T09:09:52.144Z,6.03
2017-09-01T09:12:19.601Z,6.27
2017-09-01T09:14:47.061Z,6.40
2017-09-01T09:17:14.524Z,5.27
2017-09-01T09:19:41.976Z,5.90
2017-09-01T09:22:09.429Z,7.30
2017-09-01T09:24:36.884Z,6.13
2017-09-01T09:27:04.354Z,6.27
2017-09-01T09:29:31.802Z,5.40
2017-09-01T09:31:59.258Z,5.43
2017-09-01T09:34:26.713Z,5.20
2017-09-01T09:36:54.177Z,4.70
2017-09-01T09:39:21.625Z,4.90
2017-09-01T09:41:49.086Z,4.30
2017-09-01T09:44:16.541Z,3.80
2017-09-01T09:46:43.995Z,4.10
2017-09-01T09:49:11.447Z,4.20
2017-09-01T09:51:40.053Z,5.20
2017-09-01T09:54:07.565Z,5.00
2017-09-01T09:56:35.013Z,4.40
2017-09-01T09:59:02.475Z,4.70
2017-09-01T10:01:29.936Z,4.47
2017-09-01T10:03:57.385Z,3.77
2017-09-01T10:06:24.847Z,3.70
2017-09-01T10:08:52.301Z,4.40
2017-09-01T10:11:19.753Z,4.57
2017-09-01T10:13:47.213Z,4.13
2017-09-01T10:16:14.666Z,4.30
2017-09-01T10:18:42.136Z,4.47
2017-09-01T10:21:10.348Z,4.80
2017-09-01T10:23:37.812Z,4.23
2017-09-01T10:26:05.257Z,3.63
2017-09-01T10:28:32.736Z,4.10
2017-09-01T10:31:00.193Z,4.00
2017-09-01T10:33:27.650Z,3.67
2017-09-01T10:35:55.309Z,4.20
2017-09-01T10:38:22.768Z,3.93
2017-09-01T10:40:50.225Z,3.80
2017-09-01T10:43:17.669Z,3.47
2017-09-01T10:45:45.132Z,3.93
2017-09-01T10:48:24.445Z,3.73
2017-09-01T10:51:03.849Z,3.33
2017-09-01T10:53:43.139Z,3.80
2017-09-01T10:56:22.537Z,3.50
2017-09-01T10:58:49.989Z,3.00
2017-09-01T11:01:17.425Z,2.90
2017-09-01T11:03:44.849Z,3.80
2017-09-01T11:06:12.293Z,3.47
2017-09-01T11:08:39.754Z,2.80
2017-09-01T11:11:07.233Z,2.53
2017-09-01T11:13:34.689Z,2.93
2017-09-01T11:16:02.149Z,4.10
2017-09-01T11:18:30.990Z,3.10
2017-09-01T11:21:04.188Z,3.40
2017-09-01T11:23:37.269Z,3.30
2017-09-01T11:26:04.721Z,3.10
2017-09-01T11:28:32.181Z,2.40
2017-09-01T11:30:59.629Z,2.57
2017-09-01T11:33:27.093Z,2.10
2017-09-01T11:35:54.532Z,2.07
2017-09-01T11:38:22.006Z,2.30
2017-09-01T11:40:49.452Z,2.60
2017-09-01T11:43:16.897Z,2.20
2017-09-01T11:45:44.360Z,2.07
2017-09-01T11:48:11.825Z,2.50
2017-09-01T11:50:39.281Z,1.80
2017-09-01T11:53:06.745Z,1.77
2017-09-01T11:55:34.201Z,2.33
2017-09-01T11:58:01.656Z,2.77
2017-09-01T12:00:29.114Z,2.70
2017-09-01T12:02:56.553Z,2.87
2017-09-01T12:05:24.014Z,3.00
2017-09-01T12:07:51.480Z,2.63
2017-09-01T12:10:18.933Z,2.80
2017-09-01T12:12:46.393Z,2.40
2017-09-01T12:15:13.851Z,2.53
2017-09-01T12:17:41.306Z,2.30
2017-09-01T12:20:08.769Z,2.50
2017-09-01T12:22:36.229Z,2.77
2017-09-01T12:25:03.686Z,2.50
2017-09-01T12:27:31.144Z,2.47
2017-09-01T12:29:58.602Z,2.70
2017-09-01T12:32:26.062Z,2.40
2017-09-01T12:34:53.516Z,2.50
2017-09-01T12:37:20.973Z,1.40
2017-09-01T12:39:48.438Z,2.03
2017-09-01T12:42:15.900Z,1.80
2017-09-01T12:44:43.361Z,2.13
2017-09-01T12:47:10.804Z,1.93
2017-09-01T12:49:38.265Z,2.13
2017-09-01T12:52:05.718Z,2.10
2017-09-01T12:54:33.189Z,2.20
2017-09-01T12:57:00.645Z,1.90
2017-09-01T12:59:28.089Z,1.60
2017-09-01T13:01:55.553Z,2.00
2017-09-01T13:04:23.007Z,2.07
2017-09-01T13:06:50.489Z,2.30
2017-09-01T13:09:17.945Z,2.30
2017-09-01T13:11:45.408Z,1.80
2017-09-01T13:14:12.848Z,1.60
2017-09-01T13:16:40.308Z,1.47
2017-09-01T13:19:07.764Z,2.73
2017-09-01T13:21:35.225Z,1.30
2017-09-01T13:24:02.690Z,1.10
2017-09-01T13:26:30.145Z,1.57
2017-09-01T13:28:58.385Z,1.40
2017-09-01T13:31:25.815Z,1.10
2017-09-01T13:33:53.278Z,1.53
2017-09-01T13:36:20.737Z,1.60
2017-09-01T13:38:48.193Z,1.30
2017-09-01T13:41:15.649Z,1.17
2017-09-01T13:43:43.104Z,1.50
2017-09-01T13:46:10.566Z,3.87
2017-09-01T13:48:38.033Z,2.97
2017-09-01T13:51:06.784Z,1.87
2017-09-01T13:53:34.228Z,2.63
2017-09-01T13:56:01.685Z,1.93
2017-09-01T13:58:29.141Z,2.27
2017-09-01T14:00:56.592Z,1.70
2017-09-01T14:03:24.053Z,1.60
2017-09-01T14:05:51.509Z,2.13
2017-09-01T14:08:18.974Z,2.03
2017-09-01T14:10:46.434Z,2.03
2017-09-01T14:13:13.905Z,1.70
2017-09-01T14:15:41.365Z,2.03
2017-09-01T14:18:08.817Z,2.20
2017-09-01T14:20:36.281Z,1.93
2017-09-01T14:23:03.733Z,2.27
2017-09-01T14:25:31.185Z,1.63
2017-09-01T14:27:58.663Z,2.50
2017-09-01T14:30:26.117Z,2.00
2017-09-01T14:32:53.593Z,1.60
2017-09-01T14:35:21.054Z,1.93
2017-09-01T14:37:48.501Z,2.23
2017-09-01T14:40:15.961Z,1.90
2017-09-01T14:42:43.414Z,2.37
2017-09-01T14:45:10.878Z,1.70
2017-09-01T14:47:38.322Z,1.80
2017-09-01T14:50:05.790Z,2.17
2017-09-01T14:52:33.237Z,1.90
2017-09-01T14:55:00.700Z,1.50
2017-09-01T14:57:28.145Z,2.20
2017-09-01T14:59:55.591Z,2.37
2017-09-01T15:02:23.037Z,1.90
2017-09-01T15:04:51.152Z,1.80
2017-09-01T15:07:18.665Z,1.87
2017-09-01T15:09:46.126Z,1.60
2017-09-01T15:12:13.581Z,2.00
2017-09-01T15:14:41.039Z,2.63
2017-09-01T15:17:08.493Z,1.50
2017-09-01T15:19:36.009Z,2.40
2017-09-01T16:44:00.587Z,1.90
2017-09-01T16:46:28.072Z,1.80
2017-09-01T16:48:55.529Z,2.10
2017-09-01T16:51:22.989Z,1.70
2017-09-01T16:53:50.436Z,1.47
2017-09-01T16:56:17.892Z,1.77
2017-09-01T16:58:45.351Z,2.10
2017-09-01T17:01:12.829Z,1.83
2017-09-01T17:03:40.298Z,1.60
2017-09-01T17:06:07.741Z,2.00
2017-09-01T17:08:35.260Z,2.07
2017-09-01T17:11:02.711Z,2.13
2017-09-01T17:13:30.170Z,2.30
2017-09-01T17:15:57.613Z,1.97
2017-09-01T17:18:25.139Z,1.60
2017-09-01T17:20:52.621Z,1.80
2017-09-01T17:23:20.092Z,1.87
2017-09-01T17:25:47.539Z,1.70
2017-09-01T17:28:15.098Z,1.70
2017-09-01T17:30:42.537Z,2.33
2017-09-01T17:33:10.009Z,1.77
2017-09-01T17:35:37.472Z,2.00
2017-09-01T17:38:04.938Z,1.90
2017-09-01T17:40:32.372Z,2.10
2017-09-01T17:42:59.819Z,1.97
2017-09-01T17:45:27.263Z,2.00
2017-09-01T17:47:54.716Z,3.80
2017-09-01T17:50:22.177Z,1.90
2017-09-01T17:52:49.637Z,1.90
2017-09-01T17:55:17.105Z,2.20
2017-09-01T17:57:44.551Z,2.30
2017-09-01T18:00:12.014Z,2.63
2017-09-01T18:02:39.477Z,4.73
2017-09-01T18:05:06.930Z,3.17
2017-09-01T18:07:34.385Z,5.37
2017-09-01T18:10:01.841Z,2.67
2017-09-01T18:12:30.549Z,2.33
2017-09-01T18:17:40.112Z,2.30
2017-09-01T18:20:07.553Z,2.70
2017-09-01T18:22:35.014Z,2.60
2017-09-01T18:25:02.470Z,2.80
2017-09-01T18:27:29.924Z,1.90
2017-09-01T18:29:57.376Z,2.13
2017-09-01T18:32:24.928Z,2.20
2017-09-01T18:34:52.379Z,2.60
2017-09-01T18:37:19.829Z,2.20
2017-09-01T18:39:47.286Z,2.10
2017-09-01T18:42:14.749Z,2.33
2017-09-01T18:44:42.208Z,1.90
2017-09-01T18:47:09.665Z,2.10
2017-09-01T18:49:37.132Z,2.07
2017-09-01T18:52:04.590Z,2.17
2017-09-01T18:54:32.051Z,2.13
2017-09-01T18:56:59.497Z,2.30
2017-09-01T18:59:27.033Z,2.30
2017-09-01T19:01:55.404Z,2.10
2017-09-01T19:04:22.914Z,2.73
2017-09-01T19:06:50.352Z,2.50
2017-09-01T19:09:17.800Z,2.20
2017-09-01T19:11:45.265Z,2.27
2017-09-01T19:14:13.111Z,2.03
2017-09-01T19:16:40.577Z,2.23
2017-09-01T19:19:08.037Z,2.07
2017-09-01T19:21:35.506Z,2.40
2017-09-01T19:24:02.956Z,2.00
2017-09-01T19:26:30.413Z,2.63
2017-09-01T19:28:57.878Z,2.57
2017-09-01T19:31:25.341Z,2.43
2017-09-01T19:33:53.561Z,2.10
2017-09-01T19:36:21.006Z,2.83
2017-09-01T19:38:50.144Z,2.77
2017-09-01T19:41:17.596Z,1.57
2017-09-01T19:43:45.071Z,2.23
2017-09-01T19:46:12.525Z,2.83
2017-09-01T19:48:39.977Z,2.40
2017-09-01T19:51:07.440Z,3.00
2017-09-01T19:53:34.901Z,2.10
2017-09-01T19:56:02.356Z,2.30
2017-09-01T19:58:30.129Z,2.20
2017-09-01T20:00:57.573Z,3.23
2017-09-01T20:03:25.024Z,2.60
2017-09-01T20:05:52.503Z,2.27
2017-09-01T20:08:20.066Z,2.40
2017-09-01T20:10:47.523Z,2.77
2017-09-01T20:13:14.981Z,2.63
2017-09-01T20:15:42.438Z,2.50
2017-09-01T20:18:09.883Z,3.30
2017-09-01T20:20:37.337Z,2.40
2017-09-01T20:23:04.841Z,2.90
2017-09-01T20:25:32.297Z,2.77
2017-09-01T20:27:59.748Z,2.20
2017-09-01T20:30:27.201Z,2.53
2017-09-01T20:32:54.669Z,2.30
2017-09-01T20:35:22.128Z,2.90
2017-09-01T20:37:49.573Z,3.17
2017-09-01T20:40:17.025Z,3.17
2017-09-01T20:42:44.481Z,3.20
2017-09-01T20:45:11.966Z,3.50
2017-09-01T20:47:39.433Z,3.27
2017-09-01T20:50:06.891Z,3.90
2017-09-01T20:52:34.797Z,2.90
2017-09-01T20:55:02.249Z,3.73
2017-09-01T20:57:29.697Z,5.30
2017-09-01T20:59:57.151Z,3.83
2017-09-01T21:02:24.602Z,3.30
2017-09-01T21:04:52.824Z,4.33
2017-09-01T21:07:20.274Z,4.23
2017-09-01T21:09:47.732Z,3.87
2017-09-01T21:12:15.189Z,4.90
2017-09-01T21:14:42.648Z,4.77
2017-09-01T21:17:10.936Z,3.63
2017-09-01T21:19:38.402Z,3.43
2017-09-01T21:22:05.859Z,3.80
2017-09-01T21:24:33.321Z,3.80
2017-09-01T21:27:00.785Z,3.93
2017-09-01T21:29:28.232Z,3.90
2017-09-01T21:31:55.805Z,7.10
2017-09-01T21:34:23.253Z,3.37
2017-09-01T21:36:50.705Z,4.40
2017-09-01T21:39:18.201Z,3.27
2017-09-01T21:41:45.667Z,3.47
2017-09-01T21:44:13.125Z,2.83
2017-09-01T21:46:40.586Z,3.50
2017-09-01T21:49:08.023Z,3.70
2017-09-01T21:51:35.464Z,3.50
2017-09-01T21:54:02.928Z,3.63
2017-09-01T21:56:30.597Z,3.80
2017-09-01T21:58:58.049Z,3.40
2017-09-01T22:01:33.417Z,3.37
2017-09-01T22:04:00.944Z,3.40
2017-09-01T22:06:28.402Z,4.07
2017-09-01T22:08:55.869Z,3.37
2017-09-01T22:11:23.373Z,3.60
2017-09-01T22:13:50.859Z,2.77
2017-09-01T22:16:18.317Z,2.93
2017-09-01T22:18:46.352Z,3.50
2017-09-01T22:21:13.923Z,3.03
2017-09-01T22:23:41.343Z,3.77
2017-09-01T22:26:08.793Z,3.20
2017-09-01T22:28:36.256Z,4.20
2017-09-01T22:31:03.724Z,3.30
2017-09-01T22:33:31.185Z,2.90
2017-09-01T22:35:58.661Z,2.97
2017-09-01T22:38:26.121Z,3.37
2017-09-01T22:40:53.577Z,3.07
2017-09-01T22:43:21.054Z,3.40
2017-09-01T22:45:48.500Z,3.07
2017-09-01T22:48:15.948Z,3.33
2017-09-01T22:50:43.386Z,3.23
2017-09-01T22:53:10.845Z,3.10
2017-09-01T22:55:38.302Z,3.10
2017-09-01T22:58:05.761Z,3.30
2017-09-01T23:00:33.221Z,2.80
2017-09-01T23:03:00.668Z,3.27
2017-09-01T23:05:28.129Z,3.57
2017-09-01T23:07:55.576Z,5.00
2017-09-01T23:10:23.052Z,3.60
2017-09-01T23:12:50.506Z,3.60
2017-09-01T23:15:17.963Z,3.87
2017-09-01T23:17:45.412Z,4.10
2017-09-01T23:20:12.879Z,3.30
2017-09-01T23:22:40.334Z,4.50
2017-09-01T23:25:07.798Z,3.40
2017-09-01T23:27:35.268Z,3.60
2017-09-01T23:30:02.720Z,3.57
2017-09-01T23:32:30.240Z,3.33
2017-09-01T23:34:57.699Z,3.40
2017-09-01T23:37:25.153Z,3.70
2017-09-01T23:39:53.265Z,3.50
2017-09-01T23:42:21.476Z,3.90
2017-09-01T23:44:48.934Z,4.07
2017-09-01T23:47:16.398Z,3.40
2017-09-01T23:49:43.861Z,3.00
2017-09-01T23:52:11.322Z,4.17
2017-09-01T23:54:38.781Z,3.67
2017-09-01T23:57:07.141Z,3.83
2017-09-01T23:59:34.601Z,3.73
